Time;durP1;ratioP1;P1;durP2;ratioP2;P2;SDS_P1;SDS_P2;PMS_P1;PMS_P2;Temp;Humidity;BMP_temperature;BMP_pressure;BME280_temperature;BME280_humidity;BME280_pressure;Samples;Min_cycle;Max_cycle;Signal;HPM_P1;HPM_P2
2023/04/29 00:01:31;;;;;;;2.53;2.33;;;14.90;99.90;;;;;;5007653;28;20228;-71
2023/04/29 00:03:57;;;;;;;2.40;2.20;;;14.90;99.90;;;;;;4999900;28;20217;-71
2023/04/29 00:06:22;;;;;;;2.50;2.30;;;14.90;99.90;;;;;;5007416;28;20210;-72
2023/04/29 00:08:48;;;;;;;3.50;2.63;;;14.80;99.90;;;;;;4995508;28;20480;-72
2023/04/29 00:11:14;;;;;;;2.23;2.13;;;14.80;99.90;;;;;;4991356;28;20276;-71
2023/04/29 00:13:40;;;;;;;2.20;2.10;;;14.80;99.90;;;;;;4993217;28;20214;-70
2023/04/29 00:16:06;;;;;;;2.73;2.53;;;14.70;99.90;;;;;;5008233;28;20735;-71
2023/04/29 00:18:32;;;;;;;2.70;2.50;;;14.80;99.90;;;;;;4995181;28;20222;-73
2023/04/29 00:20:58;;;;;;;3.00;2.57;;;14.80;99.90;;;;;;5005925;28;20472;-73
2023/04/29 00:23:24;;;;;;;3.17;2.87;;;14.80;99.90;;;;;;4989561;28;20523;-73
2023/04/29 00:25:52;;;;;;;2.80;2.50;;;14.70;99.90;;;;;;4991388;28;20230;-72
2023/04/29 00:28:17;;;;;;;2.50;2.30;;;14.50;99.90;;;;;;5006430;28;20376;-73
2023/04/29 00:30:43;;;;;;;2.40;2.20;;;14.50;99.90;;;;;;4992903;28;20555;-72
2023/04/29 00:33:09;;;;;;;2.70;2.23;;;14.40;99.90;;;;;;5003459;28;20222;-72
2023/04/29 00:35:35;;;;;;;2.10;2.00;;;14.40;99.90;;;;;;5001597;28;20211;-71
2023/04/29 00:38:00;;;;;;;1.67;1.57;;;14.40;99.90;;;;;;4992462;28;20210;-72
2023/04/29 00:40:27;;;;;;;2.20;2.00;;;14.40;99.90;;;;;;5008534;28;20221;-72
2023/04/29 00:42:53;;;;;;;1.70;1.60;;;14.30;99.90;;;;;;5007664;28;20283;-71
2023/04/29 00:45:19;;;;;;;1.93;1.70;;;14.30;99.90;;;;;;5007921;28;20536;-72
2023/04/29 00:47:44;;;;;;;1.33;1.27;;;14.20;99.90;;;;;;5007833;28;21002;-71
2023/04/29 00:50:10;;;;;;;1.10;1.10;;;14.20;99.90;;;;;;4997703;28;20248;-72
2023/04/29 00:52:38;;;;;;;1.37;1.30;;;14.10;99.90;;;;;;5008273;28;20217;-71
2023/04/29 00:55:07;;;;;;;1.73;1.63;;;14.00;99.90;;;;;;4992023;28;20572;-72
2023/04/29 00:57:34;;;;;;;1.20;1.20;;;14.10;99.90;;;;;;5004811;28;20492;-72
2023/04/29 00:59:59;;;;;;;1.50;1.40;;;14.00;99.90;;;;;;5010213;28;20889;-73
2023/04/29 01:02:25;;;;;;;1.50;1.30;;;14.00;99.90;;;;;;4991369;28;20590;-73
2023/04/29 01:04:52;;;;;;;1.50;1.17;;;13.80;99.90;;;;;;5007350;28;20226;-71
2023/04/29 01:07:52;;;;;;;1.30;1.10;;;13.70;99.90;;;;;;5008104;28;20994;-72
2023/04/29 01:10:38;;;;;;;1.70;1.20;;;13.60;99.90;;;;;;4950867;28;20615;-71
2023/04/29 01:13:17;;;;;;;1.53;1.43;;;13.60;99.90;;;;;;5006430;28;20818;-72
2023/04/29 01:15:59;;;;;;;1.03;1.00;;;13.60;99.90;;;;;;5004964;28;20452;-68
2023/04/29 01:18:42;;;;;;;1.00;1.00;;;13.70;99.90;;;;;;4990097;28;20469;-72
2023/04/29 01:21:09;;;;;;;1.47;1.37;;;13.70;99.90;;;;;;5005029;28;20515;-72
2023/04/29 01:23:35;;;;;;;2.20;1.20;;;13.80;99.90;;;;;;5007760;28;20449;-72
2023/04/29 01:26:01;;;;;;;1.20;1.10;;;13.80;99.90;;;;;;5007209;28;20221;-70
2023/04/29 01:29:12;;;;;;;2.00;1.17;;;13.70;99.90;;;;;;5007014;28;20260;-71
2023/04/29 01:31:50;;;;;;;1.43;1.33;;;13.80;99.90;;;;;;5004387;28;20464;-70
2023/04/29 01:34:29;;;;;;;1.30;1.20;;;13.80;99.90;;;;;;4992305;28;20471;-71
2023/04/29 01:37:13;;;;;;;1.20;1.10;;;13.80;99.90;;;;;;5006796;28;20521;-71
2023/04/29 01:40:10;;;;;;;1.03;1.00;;;13.70;99.90;;;;;;5007372;28;20445;-72
2023/04/29 01:43:00;;;;;;;1.00;1.00;;;13.70;99.90;;;;;;5006816;28;20971;-72
2023/04/29 01:45:28;;;;;;;1.50;1.40;;;13.80;99.90;;;;;;4986481;28;20456;-71
2023/04/29 01:47:58;;;;;;;1.13;1.13;;;13.80;99.90;;;;;;5006542;28;20542;-70
2023/04/29 01:50:24;;;;;;;0.90;0.90;;;13.80;99.90;;;;;;5007286;28;20457;-72
2023/04/29 01:52:50;;;;;;;1.40;1.27;;;13.70;99.90;;;;;;4991041;28;21020;-72
2023/04/29 01:55:16;;;;;;;2.70;1.67;;;13.70;99.90;;;;;;5004028;28;20690;-72
2023/04/29 01:57:50;;;;;;;1.40;1.20;;;13.70;99.90;;;;;;5006626;28;20227;-72
2023/04/29 02:00:37;;;;;;;1.37;1.20;;;13.60;99.90;;;;;;4997238;28;20488;-72
2023/04/29 02:03:04;;;;;;;1.07;1.00;;;13.60;99.90;;;;;;5007155;28;20481;-73
2023/04/29 02:05:36;;;;;;;1.10;1.10;;;13.60;99.90;;;;;;5004619;28;20468;-71
2023/04/29 02:08:02;;;;;;;1.40;1.30;;;13.50;99.90;;;;;;5006725;28;20499;-73
2023/04/29 02:10:29;;;;;;;1.60;1.50;;;13.40;99.90;;;;;;5007040;28;20253;-72
2023/04/29 02:13:23;;;;;;;1.20;1.10;;;13.40;99.90;;;;;;5005126;28;20452;-71
2023/04/29 02:15:48;;;;;;;1.30;1.13;;;13.40;99.90;;;;;;5007142;28;20448;-72
2023/04/29 02:18:15;;;;;;;1.37;1.27;;;13.50;99.90;;;;;;4998208;28;20221;-72
2023/04/29 02:20:41;;;;;;;1.30;1.20;;;13.40;99.90;;;;;;5006707;28;20449;-72
2023/04/29 02:23:07;;;;;;;1.37;1.27;;;13.40;99.90;;;;;;5009683;28;20702;-72
2023/04/29 02:25:35;;;;;;;1.53;1.33;;;13.40;99.90;;;;;;4991942;28;20903;-71
2023/04/29 02:28:00;;;;;;;1.30;1.20;;;13.30;99.90;;;;;;5009069;28;20484;-73
2023/04/29 02:30:26;;;;;;;1.10;1.10;;;13.30;99.90;;;;;;4990936;28;20454;-72
2023/04/29 02:32:53;;;;;;;2.00;1.40;;;13.30;99.90;;;;;;5009283;28;20240;-71
2023/04/29 02:35:18;;;;;;;1.87;1.13;;;13.30;99.90;;;;;;5009783;28;20228;-71
2023/04/29 02:37:44;;;;;;;1.07;1.07;;;13.40;99.90;;;;;;4991458;28;20519;-72
2023/04/29 02:40:11;;;;;;;1.10;1.10;;;13.40;99.90;;;;;;5012006;28;20749;-71
2023/04/29 02:42:37;;;;;;;1.30;1.20;;;13.40;99.90;;;;;;5008401;28;20715;-72
2023/04/29 02:45:03;;;;;;;0.93;0.93;;;13.40;99.90;;;;;;5006818;28;20452;-72
2023/04/29 02:47:29;;;;;;;1.50;1.10;;;13.40;99.90;;;;;;5009518;28;20218;-72
2023/04/29 02:49:54;;;;;;;1.37;1.27;;;13.40;99.90;;;;;;5007283;28;20457;-72
2023/04/29 02:52:20;;;;;;;1.50;1.40;;;13.40;99.90;;;;;;5010037;28;20218;-72
2023/04/29 02:54:47;;;;;;;1.33;1.23;;;13.40;99.90;;;;;;5010094;28;20214;-72
2023/04/29 02:57:12;;;;;;;1.50;1.40;;;13.30;99.90;;;;;;5009571;28;20974;-72
2023/04/29 02:59:38;;;;;;;2.60;1.63;;;13.30;99.90;;;;;;5008259;28;20687;-73
2023/04/29 03:02:04;;;;;;;1.60;1.50;;;13.40;99.90;;;;;;4994534;28;20233;-72
2023/04/29 03:04:30;;;;;;;1.50;1.40;;;13.30;99.90;;;;;;5007813;28;20304;-72
2023/04/29 03:06:55;;;;;;;1.10;1.10;;;13.30;99.90;;;;;;5005522;28;20257;-72
2023/04/29 03:09:22;;;;;;;1.10;1.10;;;13.30;99.90;;;;;;5009460;28;20233;-73
2023/04/29 03:11:48;;;;;;;2.20;1.67;;;13.30;99.90;;;;;;5011462;28;20221;-72
2023/04/29 03:14:14;;;;;;;1.47;1.37;;;13.30;99.90;;;;;;5009859;28;20457;-73
2023/04/29 03:16:40;;;;;;;1.40;1.30;;;13.30;99.90;;;;;;5008998;28;20345;-73
2023/04/29 03:19:06;;;;;;;1.23;1.20;;;13.20;99.90;;;;;;5010064;28;20273;-72
2023/04/29 03:21:31;;;;;;;1.00;1.00;;;13.20;99.90;;;;;;5009184;28;20612;-72
2023/04/29 03:23:57;;;;;;;1.43;1.33;;;13.20;99.90;;;;;;5008992;28;20453;-71
2023/04/29 03:26:29;;;;;;;1.40;1.23;;;13.30;99.90;;;;;;5009507;28;20458;-72
2023/04/29 03:28:55;;;;;;;1.80;1.70;;;13.30;99.90;;;;;;5009595;28;20889;-72
2023/04/29 03:31:22;;;;;;;1.70;1.60;;;13.30;99.90;;;;;;5008294;28;20544;-72
2023/04/29 03:33:47;;;;;;;2.03;1.50;;;13.30;99.90;;;;;;5009241;28;20225;-72
2023/04/29 03:36:14;;;;;;;1.60;1.50;;;13.30;99.90;;;;;;4995445;28;20460;-72
2023/04/29 03:38:49;;;;;;;1.20;1.10;;;13.30;99.90;;;;;;4991431;28;20222;-69
2023/04/29 03:41:15;;;;;;;1.50;1.40;;;13.10;99.90;;;;;;5008426;28;20507;-71
2023/04/29 03:43:43;;;;;;;1.77;1.67;;;13.00;99.90;;;;;;4990179;28;20214;-70
2023/04/29 03:46:09;;;;;;;1.70;1.60;;;12.80;99.90;;;;;;5008954;28;20540;-72
2023/04/29 03:48:35;;;;;;;1.70;1.60;;;12.70;99.90;;;;;;4989125;28;20477;-71
2023/04/29 03:51:01;;;;;;;1.97;1.83;;;12.70;99.90;;;;;;5007498;28;20468;-71
2023/04/29 03:53:27;;;;;;;1.70;1.60;;;12.80;99.90;;;;;;5008924;28;20465;-70
2023/04/29 03:55:53;;;;;;;1.43;1.33;;;12.90;99.90;;;;;;5009209;28;20598;-72
2023/04/29 03:58:19;;;;;;;2.00;1.80;;;12.90;99.90;;;;;;5007932;28;20457;-75
2023/04/29 04:00:45;;;;;;;2.50;2.07;;;12.80;99.90;;;;;;5003839;28;20228;-69
2023/04/29 04:03:16;;;;;;;4.13;1.93;;;12.70;99.90;;;;;;4995518;28;20214;-71
2023/04/29 04:05:43;;;;;;;2.20;2.00;;;12.70;99.90;;;;;;5004481;28;20453;-71
2023/04/29 04:08:12;;;;;;;2.10;1.80;;;12.70;99.90;;;;;;5007613;28;20469;-69
2023/04/29 04:10:50;;;;;;;2.77;2.37;;;12.90;99.90;;;;;;4992396;28;20506;-70
2023/04/29 04:13:42;;;;;;;2.20;2.00;;;13.10;99.90;;;;;;5006033;28;20525;-70
2023/04/29 04:16:11;;;;;;;3.13;2.83;;;13.10;99.90;;;;;;5006035;28;20828;-71
2023/04/29 04:18:37;;;;;;;4.30;3.20;;;13.10;99.90;;;;;;4990960;28;20464;-71
2023/04/29 04:21:08;;;;;;;3.03;2.83;;;13.00;99.90;;;;;;5008125;28;20476;-70
2023/04/29 04:23:35;;;;;;;2.77;2.57;;;13.10;99.90;;;;;;5008464;28;20468;-72
2023/04/29 04:26:02;;;;;;;4.20;3.67;;;13.10;99.90;;;;;;4991516;28;20990;-71
2023/04/29 04:28:46;;;;;;;3.97;3.37;;;13.10;99.90;;;;;;5009373;28;20600;-70
2023/04/29 04:31:19;;;;;;;4.10;3.70;;;12.90;99.90;;;;;;4992308;28;20469;-77
2023/04/29 04:33:45;;;;;;;4.60;3.63;;;13.00;99.90;;;;;;5007930;28;20453;-71
2023/04/29 04:36:11;;;;;;;4.20;3.73;;;13.10;99.90;;;;;;5008015;28;20221;-72
2023/04/29 04:38:37;;;;;;;4.23;3.20;;;13.10;99.90;;;;;;4994756;28;20485;-70
2023/04/29 04:41:07;;;;;;;3.70;3.00;;;13.00;99.90;;;;;;5007642;28;20524;-71
2023/04/29 04:43:35;;;;;;;7.53;3.67;;;13.10;99.90;;;;;;4991871;28;21044;-70
2023/04/29 04:46:15;;;;;;;4.57;4.07;;;13.00;99.90;;;;;;5001964;28;20452;-71
2023/04/29 04:48:51;;;;;;;3.77;3.47;;;12.90;99.90;;;;;;5006657;28;20502;-71
2023/04/29 04:51:18;;;;;;;4.90;3.60;;;12.90;99.90;;;;;;5007827;28;20476;-71
2023/04/29 04:53:44;;;;;;;3.47;3.17;;;13.00;99.90;;;;;;5008029;28;20447;-70
2023/04/29 04:56:17;;;;;;;5.03;3.80;;;13.10;99.90;;;;;;4988508;28;20228;-71
2023/04/29 04:58:43;;;;;;;4.90;3.90;;;13.20;99.90;;;;;;5006571;28;20444;-70
2023/04/29 05:01:09;;;;;;;5.43;4.13;;;13.20;99.90;;;;;;4991195;28;20316;-70
2023/04/29 05:03:34;;;;;;;7.10;5.37;;;13.20;99.90;;;;;;5007592;28;20308;-73
2023/04/29 05:06:00;;;;;;;7.70;5.37;;;13.20;99.90;;;;;;4996859;28;20218;-72
2023/04/29 05:08:27;;;;;;;9.87;6.67;;;13.20;99.90;;;;;;4996077;28;20306;-69
2023/04/29 05:10:55;;;;;;;9.83;6.57;;;13.10;99.90;;;;;;5006747;28;20539;-70
2023/04/29 05:13:20;;;;;;;9.50;6.90;;;13.10;99.90;;;;;;5001638;28;20508;-73
2023/04/29 05:15:46;;;;;;;7.90;6.50;;;13.10;99.90;;;;;;5004835;28;20554;-71
2023/04/29 05:18:17;;;;;;;9.30;7.40;;;13.10;99.90;;;;;;4997784;28;20316;-71
2023/04/29 05:20:46;;;;;;;10.17;7.50;;;13.10;99.90;;;;;;5005017;28;20480;-71
2023/04/29 05:23:12;;;;;;;11.40;7.57;;;13.10;99.90;;;;;;5007123;28;20452;-71
2023/04/29 05:25:39;;;;;;;11.80;7.83;;;13.10;99.90;;;;;;5007572;28;20218;-71
2023/04/29 05:28:06;;;;;;;10.63;8.00;;;13.00;99.90;;;;;;4989871;28;20473;-71
2023/04/29 05:30:33;;;;;;;13.60;8.73;;;13.00;99.90;;;;;;4991374;28;20218;-71
2023/04/29 05:32:59;;;;;;;12.87;8.20;;;13.00;99.90;;;;;;4995519;28;20461;-72
2023/04/29 05:35:26;;;;;;;9.00;6.70;;;12.90;99.90;;;;;;4999656;28;20884;-71
2023/04/29 05:37:53;;;;;;;13.40;7.20;;;12.90;99.90;;;;;;5003074;28;20959;-72
2023/04/29 05:40:39;;;;;;;9.33;7.37;;;12.80;99.90;;;;;;5003108;28;20525;-71
2023/04/29 05:43:37;;;;;;;11.73;8.10;;;12.80;99.90;;;;;;5006682;28;20876;-71
2023/04/29 05:46:03;;;;;;;11.57;7.10;;;12.90;99.90;;;;;;5006783;28;20457;-71
2023/04/29 05:48:28;;;;;;;10.63;6.90;;;12.90;99.90;;;;;;5007053;28;20310;-69
2023/04/29 05:50:55;;;;;;;13.47;7.87;;;12.90;99.90;;;;;;5006616;28;20229;-71
2023/04/29 05:53:21;;;;;;;11.50;7.43;;;12.90;99.90;;;;;;5006475;28;20492;-72
2023/04/29 05:55:49;;;;;;;10.63;6.93;;;12.90;99.90;;;;;;4987539;28;20461;-71
2023/04/29 05:58:15;;;;;;;10.80;7.13;;;12.90;99.90;;;;;;4990573;28;20465;-72
2023/04/29 06:00:42;;;;;;;10.57;7.00;;;12.90;99.90;;;;;;5000403;28;20443;-70
2023/04/29 06:03:14;;;;;;;13.20;6.90;;;12.90;99.90;;;;;;5011056;28;20531;-72
2023/04/29 06:05:40;;;;;;;9.43;6.60;;;12.80;99.90;;;;;;4993077;28;20536;-70
2023/04/29 06:08:15;;;;;;;12.13;6.90;;;12.80;99.90;;;;;;4997124;28;20229;-73
2023/04/29 06:10:50;;;;;;;10.57;7.27;;;12.80;99.90;;;;;;5011084;28;20509;-72
2023/04/29 06:13:16;;;;;;;11.57;6.37;;;12.70;99.90;;;;;;5010697;28;20476;-72
2023/04/29 06:15:42;;;;;;;10.07;6.60;;;12.80;99.90;;;;;;5010137;28;20453;-70
2023/04/29 06:18:07;;;;;;;8.60;5.50;;;12.80;99.90;;;;;;5010323;28;20309;-71
2023/04/29 06:20:33;;;;;;;6.93;4.70;;;12.80;99.90;;;;;;5010721;28;20225;-71
2023/04/29 06:22:59;;;;;;;10.60;5.77;;;12.80;99.90;;;;;;5010843;28;20593;-72
2023/04/29 06:25:24;;;;;;;7.73;6.27;;;12.80;99.90;;;;;;4993042;28;20221;-72
2023/04/29 06:27:50;;;;;;;6.00;4.37;;;12.80;99.90;;;;;;5010304;28;20225;-69
2023/04/29 06:30:19;;;;;;;9.83;6.57;;;12.80;99.90;;;;;;5010191;28;20958;-75
2023/04/29 06:32:45;;;;;;;8.73;5.20;;;12.80;99.90;;;;;;5010037;28;20452;-71
2023/04/29 06:35:10;;;;;;;8.60;4.67;;;12.90;99.90;;;;;;5009459;28;20218;-71
2023/04/29 06:37:56;;;;;;;6.67;5.20;;;12.80;99.90;;;;;;5006054;28;20268;-71
2023/04/29 06:40:34;;;;;;;6.60;4.87;;;12.90;99.90;;;;;;4991952;28;20463;-70
2023/04/29 06:43:03;;;;;;;7.00;4.90;;;12.80;99.90;;;;;;5010547;28;20511;-71
2023/04/29 06:45:49;;;;;;;6.23;4.97;;;12.80;99.90;;;;;;5010152;28;20483;-71
2023/04/29 06:48:27;;;;;;;6.10;4.63;;;12.90;99.90;;;;;;5008565;28;20544;-72
2023/04/29 06:50:54;;;;;;;6.37;4.37;;;12.90;99.90;;;;;;4993246;28;20535;-71
2023/04/29 06:53:21;;;;;;;7.73;4.93;;;12.90;99.90;;;;;;5004502;28;20225;-71
2023/04/29 06:55:47;;;;;;;5.43;4.73;;;12.90;99.90;;;;;;4994432;28;20537;-70
2023/04/29 06:58:13;;;;;;;10.23;4.80;;;12.80;99.90;;;;;;5008191;28;20543;-72
2023/04/29 07:00:39;;;;;;;8.03;4.70;;;12.80;99.90;;;;;;5008688;28;20471;-70
2023/04/29 07:03:05;;;;;;;5.97;4.57;;;12.80;99.90;;;;;;4992997;28;20484;-70
2023/04/29 07:05:31;;;;;;;6.80;4.63;;;12.90;99.90;;;;;;4992332;28;20484;-71
2023/04/29 07:07:57;;;;;;;4.93;4.23;;;12.80;99.90;;;;;;4992826;28;20994;-71
2023/04/29 07:10:25;;;;;;;6.07;4.77;;;12.80;99.90;;;;;;5007929;28;20225;-71
2023/04/29 07:12:53;;;;;;;6.20;4.83;;;12.90;99.90;;;;;;5008488;28;20974;-71
2023/04/29 07:15:20;;;;;;;5.17;4.33;;;13.00;99.90;;;;;;5007816;28;20491;-71
2023/04/29 07:17:46;;;;;;;8.60;4.50;;;12.90;99.90;;;;;;4997294;28;20489;-72
2023/04/29 07:20:13;;;;;;;6.10;4.30;;;12.90;99.90;;;;;;5009094;28;20496;-72
2023/04/29 07:22:38;;;;;;;6.07;3.93;;;12.90;99.90;;;;;;5005329;28;20222;-71
2023/04/29 07:25:04;;;;;;;4.87;4.37;;;12.90;99.90;;;;;;5009381;28;20477;-70
2023/04/29 07:27:33;;;;;;;6.27;4.23;;;12.90;99.90;;;;;;4991769;28;20228;-71
2023/04/29 07:30:00;;;;;;;5.37;3.87;;;12.90;99.90;;;;;;4993167;28;20460;-71
2023/04/29 07:32:26;;;;;;;4.53;3.77;;;12.90;99.90;;;;;;5008086;28;20522;-72
2023/04/29 07:34:52;;;;;;;5.10;3.97;;;12.90;99.90;;;;;;5005623;28;20455;-70
2023/04/29 07:37:18;;;;;;;4.23;3.70;;;12.90;99.90;;;;;;4991979;28;20576;-71
2023/04/29 07:39:44;;;;;;;4.40;3.83;;;12.90;99.90;;;;;;4991981;28;20294;-70
2023/04/29 07:42:10;;;;;;;3.80;2.93;;;12.90;99.90;;;;;;5008522;28;20218;-71
2023/04/29 07:44:35;;;;;;;4.90;3.20;;;12.90;99.90;;;;;;4992178;28;20472;-70
2023/04/29 07:47:01;;;;;;;5.17;4.10;;;12.90;99.90;;;;;;5008644;28;20217;-72
2023/04/29 07:49:27;;;;;;;5.07;3.57;;;13.00;99.90;;;;;;4989950;28;20556;-71
2023/04/29 07:51:53;;;;;;;4.03;3.50;;;13.00;99.90;;;;;;4992813;28;20222;-71
2023/04/29 07:54:19;;;;;;;3.43;2.77;;;13.00;99.90;;;;;;5006317;28;20278;-71
2023/04/29 07:56:45;;;;;;;3.93;3.53;;;13.10;99.90;;;;;;5003307;28;20216;-71
2023/04/29 07:59:11;;;;;;;5.27;4.27;;;13.10;99.90;;;;;;5007581;28;20214;-70
2023/04/29 08:01:37;;;;;;;4.60;4.10;;;13.10;99.90;;;;;;5004229;28;20464;-71
2023/04/29 08:04:03;;;;;;;4.33;3.93;;;13.10;99.90;;;;;;5006187;28;20456;-72
2023/04/29 08:06:31;;;;;;;5.63;4.47;;;13.10;99.90;;;;;;5007322;28;20800;-70
2023/04/29 08:08:56;;;;;;;6.40;4.50;;;13.10;99.90;;;;;;4992024;28;20522;-71
2023/04/29 08:11:23;;;;;;;5.03;3.90;;;13.10;99.90;;;;;;5003457;28;20226;-71
2023/04/29 08:13:49;;;;;;;6.50;4.00;;;13.10;99.90;;;;;;5008407;28;20241;-70
2023/04/29 08:16:15;;;;;;;4.33;3.77;;;13.10;99.90;;;;;;5008088;28;20464;-71
2023/04/29 08:18:41;;;;;;;6.30;4.40;;;13.20;99.90;;;;;;4992056;28;20444;-71
2023/04/29 08:21:10;;;;;;;6.20;3.93;;;13.10;99.90;;;;;;5008587;28;20252;-72
2023/04/29 08:23:36;;;;;;;6.83;4.60;;;13.10;99.90;;;;;;5004328;28;20465;-70
2023/04/29 08:26:03;;;;;;;6.90;4.57;;;13.10;99.90;;;;;;5007247;28;20488;-72
2023/04/29 08:28:28;;;;;;;8.30;4.70;;;13.20;99.90;;;;;;5007350;28;20477;-71
2023/04/29 08:30:55;;;;;;;5.47;4.13;;;13.20;99.90;;;;;;5002657;28;20981;-70
2023/04/29 08:33:21;;;;;;;6.37;5.00;;;13.20;99.90;;;;;;5006297;28;20233;-69
2023/04/29 08:35:46;;;;;;;9.30;5.30;;;13.10;99.90;;;;;;5006347;28;20460;-69
2023/04/29 08:38:12;;;;;;;4.73;3.93;;;13.10;99.90;;;;;;4991519;28;20305;-71
2023/04/29 08:40:44;;;;;;;8.30;4.20;;;13.20;99.90;;;;;;5007292;28;20221;-70
2023/04/29 08:43:11;;;;;;;6.27;4.63;;;13.20;99.90;;;;;;5007350;28;20222;-69
2023/04/29 08:45:38;;;;;;;6.57;4.80;;;13.30;99.90;;;;;;5008888;28;20460;-71
2023/04/29 08:48:07;;;;;;;5.20;3.90;;;13.20;99.90;;;;;;4992453;28;20475;-71
2023/04/29 08:50:40;;;;;;;6.43;4.20;;;13.30;99.90;;;;;;5008195;28;20579;-71
2023/04/29 08:53:07;;;;;;;7.50;4.83;;;13.30;99.90;;;;;;5008286;28;20457;-70
2023/04/29 08:55:41;;;;;;;6.70;4.47;;;13.30;99.90;;;;;;5008657;28;20465;-72
2023/04/29 08:58:08;;;;;;;6.07;4.70;;;13.30;99.90;;;;;;5006847;28;20464;-72
2023/04/29 09:00:35;;;;;;;7.10;4.80;;;13.30;99.90;;;;;;5006943;28;20448;-72
2023/04/29 09:03:24;;;;;;;8.50;5.30;;;13.40;99.90;;;;;;5005290;28;20468;-70
2023/04/29 09:05:53;;;;;;;6.57;4.57;;;13.30;99.90;;;;;;4993803;28;20670;-69
2023/04/29 09:08:21;;;;;;;10.23;5.40;;;13.30;99.90;;;;;;5007463;28;20559;-71
2023/04/29 09:10:47;;;;;;;7.40;5.33;;;13.30;99.90;;;;;;5007629;28;20837;-69
2023/04/29 09:13:26;;;;;;;8.37;4.93;;;13.30;99.90;;;;;;5004879;28;20453;-70
2023/04/29 09:15:53;;;;;;;5.80;4.67;;;13.30;99.90;;;;;;5006838;28;20222;-70
2023/04/29 09:18:40;;;;;;;6.13;4.87;;;13.30;99.90;;;;;;5007179;28;20471;-71
2023/04/29 09:21:20;;;;;;;6.77;5.03;;;13.30;99.90;;;;;;5007496;28;20500;-70
2023/04/29 09:23:48;;;;;;;5.97;4.10;;;13.30;99.90;;;;;;5003856;28;20966;-71
2023/04/29 09:26:15;;;;;;;6.17;4.40;;;13.30;99.90;;;;;;5006439;28;20982;-72
2023/04/29 09:28:43;;;;;;;6.40;4.67;;;13.30;99.90;;;;;;4990165;28;20544;-71
2023/04/29 09:31:10;;;;;;;6.20;4.60;;;13.30;99.90;;;;;;5007448;28;20546;-72
2023/04/29 09:33:53;;;;;;;6.57;4.80;;;13.40;99.90;;;;;;5002834;28;20472;-70
2023/04/29 09:36:40;;;;;;;7.43;4.40;;;13.30;99.90;;;;;;5012948;28;20472;-67
2023/04/29 09:39:29;;;;;;;4.43;3.50;;;13.30;99.90;;;;;;5009444;28;21024;-69
2023/04/29 09:41:55;;;;;;;5.07;4.30;;;13.30;99.90;;;;;;5014047;28;20994;-68
2023/04/29 09:44:23;;;;;;;6.70;3.80;;;13.30;99.90;;;;;;4994513;28;20462;-68
2023/04/29 09:47:01;;;;;;;4.00;3.60;;;13.30;99.90;;;;;;5011970;28;20231;-68
2023/04/29 09:49:27;;;;;;;5.50;4.23;;;13.40;99.90;;;;;;5010082;28;20476;-68
2023/04/29 09:52:02;;;;;;;5.00;3.70;;;13.40;99.90;;;;;;5001912;28;20514;-68
2023/04/29 09:54:30;;;;;;;4.47;3.73;;;13.40;99.90;;;;;;5009968;28;20479;-68
2023/04/29 09:56:58;;;;;;;4.33;3.30;;;13.40;99.90;;;;;;5012221;28;20831;-68
2023/04/29 09:59:24;;;;;;;4.10;3.77;;;13.40;99.90;;;;;;5010990;28;20459;-71
2023/04/29 10:01:54;;;;;;;3.40;3.10;;;13.30;99.90;;;;;;5014658;28;20510;-70
2023/04/29 10:04:21;;;;;;;4.03;3.13;;;13.30;99.90;;;;;;5005546;28;20532;-73
2023/04/29 10:06:49;;;;;;;4.17;3.37;;;13.30;99.90;;;;;;5009405;28;20452;-69
2023/04/29 10:09:17;;;;;;;3.70;2.80;;;13.20;99.90;;;;;;5009592;28;20484;-70
2023/04/29 10:11:51;;;;;;;3.53;3.17;;;13.20;99.90;;;;;;5008652;28;20551;-70
2023/04/29 10:14:24;;;;;;;6.57;3.23;;;13.10;99.90;;;;;;5010648;28;20465;-68
2023/04/29 10:17:10;;;;;;;6.07;3.00;;;13.10;99.90;;;;;;5012807;28;20491;-69
2023/04/29 10:19:44;;;;;;;4.60;2.37;;;13.20;99.90;;;;;;5012687;28;20970;-68
2023/04/29 10:22:21;;;;;;;5.10;3.40;;;13.30;99.90;;;;;;5012584;28;21055;-68
2023/04/29 10:24:48;;;;;;;4.40;2.77;;;13.20;99.90;;;;;;4984436;28;20884;-70
2023/04/29 10:27:16;;;;;;;5.77;3.17;;;13.30;99.90;;;;;;5011454;28;20479;-70
2023/04/29 10:29:43;;;;;;;5.17;3.10;;;13.30;99.90;;;;;;5013138;28;20452;-70
2023/04/29 10:32:11;;;;;;;2.47;2.10;;;13.20;99.90;;;;;;5010010;28;20982;-69
2023/04/29 10:34:40;;;;;;;5.07;2.90;;;13.20;99.90;;;;;;5011809;28;20862;-68
2023/04/29 10:37:10;;;;;;;4.10;2.70;;;13.20;99.90;;;;;;5007397;28;20453;-69
2023/04/29 10:39:57;;;;;;;3.90;3.00;;;13.30;99.90;;;;;;5009531;28;20464;-69
2023/04/29 10:42:47;;;;;;;2.50;2.27;;;13.30;99.90;;;;;;5012977;28;20495;-71
2023/04/29 10:45:26;;;;;;;3.13;2.40;;;13.20;99.90;;;;;;5011095;28;20853;-71
2023/04/29 10:48:04;;;;;;;3.33;2.50;;;13.20;99.90;;;;;;5010378;28;20461;-68
2023/04/29 10:50:44;;;;;;;2.80;2.50;;;13.20;99.90;;;;;;5008268;28;20471;-70
2023/04/29 10:53:09;;;;;;;5.43;2.53;;;13.30;99.90;;;;;;5004533;28;21001;-71
2023/04/29 10:55:36;;;;;;;3.17;2.60;;;13.30;99.90;;;;;;5005334;28;20468;-72
2023/04/29 10:58:03;;;;;;;3.43;2.60;;;13.30;99.90;;;;;;5008129;28;20225;-69
2023/04/29 11:00:31;;;;;;;3.80;2.60;;;13.30;99.90;;;;;;5008220;28;20487;-70
2023/04/29 11:03:00;;;;;;;3.30;2.97;;;13.30;99.90;;;;;;4992404;28;20460;-71
2023/04/29 11:05:33;;;;;;;2.10;1.90;;;13.30;99.90;;;;;;5008014;28;20485;-71
2023/04/29 11:08:12;;;;;;;3.80;2.57;;;13.30;99.90;;;;;;5008795;28;20499;-70
2023/04/29 11:10:42;;;;;;;4.43;2.73;;;13.30;99.90;;;;;;5002380;28;20449;-70
2023/04/29 11:13:28;;;;;;;4.00;2.57;;;13.40;99.90;;;;;;5007661;28;20491;-70
2023/04/29 11:16:04;;;;;;;4.20;3.00;;;13.30;99.90;;;;;;4989266;28;20479;-69
2023/04/29 11:18:29;;;;;;;4.27;3.03;;;13.40;99.90;;;;;;5007883;28;21087;-70
2023/04/29 11:21:07;;;;;;;3.07;2.53;;;13.40;99.90;;;;;;5008801;28;20460;-71
2023/04/29 11:23:34;;;;;;;2.93;2.50;;;13.40;99.90;;;;;;5007459;28;20229;-72
2023/04/29 11:26:00;;;;;;;3.77;2.83;;;13.40;99.90;;;;;;5008677;28;20819;-70
2023/04/29 11:28:30;;;;;;;4.00;2.97;;;13.40;99.90;;;;;;4998965;28;20473;-71
2023/04/29 11:30:56;;;;;;;7.87;3.00;;;13.40;99.90;;;;;;5003620;28;20480;-71
2023/04/29 11:33:26;;;;;;;3.60;2.70;;;13.40;99.90;;;;;;4999013;28;20465;-71
2023/04/29 11:35:53;;;;;;;4.30;2.50;;;13.40;99.90;;;;;;5002940;28;20453;-69
2023/04/29 11:38:29;;;;;;;3.90;3.33;;;13.40;99.90;;;;;;5002183;28;20527;-71
2023/04/29 11:40:56;;;;;;;3.47;3.17;;;13.40;99.90;;;;;;5002807;28;20785;-69
2023/04/29 11:43:23;;;;;;;3.80;2.97;;;13.40;99.90;;;;;;4996279;28;20484;-70
2023/04/29 11:45:50;;;;;;;2.83;2.47;;;13.40;99.90;;;;;;4998943;28;20503;-71
2023/04/29 11:48:20;;;;;;;4.33;3.23;;;13.40;99.90;;;;;;5002749;28;20484;-72
2023/04/29 11:50:47;;;;;;;3.80;3.07;;;13.30;99.90;;;;;;4982705;28;20453;-70
2023/04/29 11:53:13;;;;;;;5.73;3.47;;;13.30;99.90;;;;;;4985375;28;21037;-69
2023/04/29 11:55:42;;;;;;;3.00;2.80;;;13.40;99.90;;;;;;4992948;28;20615;-69
2023/04/29 11:58:08;;;;;;;3.03;2.73;;;13.50;99.90;;;;;;4983263;28;20213;-71
2023/04/29 12:00:34;;;;;;;4.67;2.40;;;13.50;99.90;;;;;;4997001;28;21029;-69
2023/04/29 12:03:00;;;;;;;3.60;3.20;;;13.60;99.90;;;;;;5001390;28;20614;-70
2023/04/29 12:05:25;;;;;;;4.00;3.27;;;13.60;99.90;;;;;;4992629;28;20230;-69
2023/04/29 12:07:51;;;;;;;2.87;2.33;;;13.60;99.90;;;;;;5001401;28;20240;-67
2023/04/29 12:10:17;;;;;;;3.13;2.70;;;13.70;99.90;;;;;;4997112;28;20218;-70
2023/04/29 12:12:44;;;;;;;4.23;3.40;;;13.70;99.90;;;;;;4997164;28;20249;-68
2023/04/29 12:15:11;;;;;;;4.77;3.20;;;13.80;99.90;;;;;;5002951;28;20225;-69
2023/04/29 12:17:37;;;;;;;3.77;3.20;;;13.80;99.90;;;;;;4996357;28;20484;-70
2023/04/29 12:20:04;;;;;;;3.03;2.63;;;13.80;99.90;;;;;;4996423;28;20512;-69
2023/04/29 12:22:31;;;;;;;4.40;3.50;;;13.90;99.90;;;;;;4997054;28;20469;-70
2023/04/29 12:24:57;;;;;;;4.40;3.30;;;14.00;99.90;;;;;;5001474;28;20465;-71
2023/04/29 12:27:23;;;;;;;3.03;2.70;;;14.10;99.90;;;;;;4978935;28;20473;-70
2023/04/29 12:29:51;;;;;;;3.20;2.90;;;14.20;99.90;;;;;;5002317;28;20256;-69
2023/04/29 12:32:20;;;;;;;4.13;3.03;;;14.30;99.90;;;;;;5001102;28;20269;-70
2023/04/29 12:34:46;;;;;;;3.57;2.83;;;14.50;99.90;;;;;;4999552;28;20455;-69
2023/04/29 12:37:13;;;;;;;3.57;2.93;;;14.60;99.90;;;;;;5000301;28;20824;-69
2023/04/29 12:39:40;;;;;;;4.53;3.10;;;14.90;99.90;;;;;;4997651;28;20221;-71
2023/04/29 12:42:06;;;;;;;3.40;3.10;;;15.50;99.90;;;;;;5002139;28;20465;-71
2023/04/29 12:44:36;;;;;;;3.90;2.50;;;15.70;99.90;;;;;;4978714;28;20531;-70
2023/04/29 12:47:09;;;;;;;4.93;3.23;;;15.80;99.90;;;;;;4981689;28;20218;-70
2023/04/29 12:49:44;;;;;;;3.53;3.23;;;16.00;99.90;;;;;;4996201;28;20500;-71
2023/04/29 12:52:10;;;;;;;3.40;2.87;;;15.90;99.90;;;;;;4997623;28;20465;-71
2023/04/29 12:54:42;;;;;;;3.00;2.70;;;15.60;99.90;;;;;;4996654;28;20503;-70
2023/04/29 12:57:11;;;;;;;2.83;2.60;;;15.50;99.90;;;;;;5001268;28;20465;-71